LFMTLFTW

Guest
Details From LFMT - Montpellier/Mediterranee
To LFTW - Garons Navy
Flight Number -
Tags generated
Created
Modified
Stats Distance 23 nm / 42 km
Max Altitude 100 ft / 30 m
Waypoints 3
Social Downloads 2
Likes 0
Share VATSIM

Download

Looking for another format? Having issues loading an existing format? Contact us
Advertisement - Login to hide

Notes

Basic altitude profile: - Ascent Rate: 2500ft/min - Ascent Speed: 250kts - Cruise Altitude: 35000ft - Cruise Speed: 420kts - Descent Rate: 1500ft/min - Descent Speed: 250kts Options: - Use NATs: no - Use PACOTS: no - Use low airways: no - Use high airways: yes

Route

LFMT FJR LFTW

ID Type Via Altitude Latitude Longitude Leg Dist Tot Dist Heading (true) Name
O LFMT APT - 0 ft / 0 m 43.57626˚ 3.96326˚ - 0 nm - Montpellier/Mediterranee
FJR VOR - 100 ft / 30 m 43.57836˚ 3.97472˚ 0 nm 0 nm 76° / 76° MONPELLIER MEDITERRANEE VOR-DM
O LFTW APT - 0 ft / 0 m 43.75744˚ 4.41639˚ 21 nm 22 nm 61° / 61° Garons Navy

Altitude Profile

Advertisement - Login to hide

LFMT

Details ICAO LFMT (MPL)
Name Montpellier/Mediterranee
Region France
Timezone Europe/Paris (UTC+1.0)
Stats Elevation 16 ft / 5 m (AMSL)
Location 43.576262° 3.963261°
Runways 2
Magnetic Variation 1.246° E

METAR

LFMT 112300Z AUTO 31009KT CAVOK 05/04 Q1001 NOSIG

Decode

TAF

TAF LFMT 112000Z 1121/1221 26008KT CAVOK BECMG 1209/1213 31012KT

Decode

Departure Runways

ID Width Length Bearing (true) Bearing (mag) Surface Threshold Offset Overrun Length
13L 164 ft / 50 m 8,525 ft / 2,598 m 124.78° 123.53° Asphalt 0 ft / 0 m 0 ft / 0 m
13R 98 ft / 30 m 3,611 ft / 1,101 m 124.80° 123.55° Asphalt 328 ft / 100 m 0 ft / 0 m
31L 98 ft / 30 m 3,611 ft / 1,101 m 304.81° 303.56° Asphalt 0 ft / 0 m 0 ft / 0 m
31R 164 ft / 50 m 8,525 ft / 2,598 m 304.80° 303.55° Asphalt 0 ft / 0 m 0 ft / 0 m

LFTW

Details ICAO LFTW (FNI)
Name Garons Navy
Region France
Timezone Europe/Paris (UTC+1.0)
Stats Elevation 308 ft / 94 m (AMSL)
Location 43.757444° 4.416388°
Runways 1
Magnetic Variation 1.355° E

METAR

LFTW 112300Z AUTO 22009KT 9999 FEW039 06/04 Q1001

Decode

TAF

TAF TAF LFTW 111911Z 1119/1215 CNL

Decode

Destination Runways

ID Width Length Bearing (true) Bearing (mag) Surface Threshold Offset Overrun Length
18 148 ft / 45 m 8,657 ft / 2,639 m 177.10° 175.75° Concrete 331 ft / 101 m 0 ft / 0 m
36 148 ft / 45 m 8,657 ft / 2,639 m 357.10° 355.75° Concrete 331 ft / 101 m 0 ft / 0 m

Approach Navaids

Runway Type Ident Frequency Range Bearing (true) Bearing (mag) Slope Elevation
18 Localiser NG 109.55 MHz 18 nm / 33 km 177.13° 175.78° - 306 ft / 93 m (AMSL)
18 Glidescope NG 109.55 MHz 10 nm / 19 km 177.10° 175.74° 3.00° 302 ft / 92 m (AMSL)
18 DME NG 109.55 MHz 18 nm / 33 km - - - 340 ft / 104 m (AMSL)
36 Localiser NG 109.09 MHz 18 nm / 33 km 356.75° 355.40° - 308 ft / 94 m (AMSL)
36 Glidescope NG 109.09 MHz 10 nm / 19 km 357.10° 355.74° 3.00° 308 ft / 94 m (AMSL)

Popular Alternatives